sensor_id;sensor_type;location;lat;lon;timestamp;temperature;humidity
63283;DHT22;49407;51.388;0.048;2022-07-03T00:03:10;16.60;80.90
63283;DHT22;49407;51.388;0.048;2022-07-03T00:05:37;16.60;80.70
63283;DHT22;49407;51.388;0.048;2022-07-03T00:08:04;16.50;80.90
63283;DHT22;49407;51.388;0.048;2022-07-03T00:10:31;16.50;81.00
63283;DHT22;49407;51.388;0.048;2022-07-03T00:12:58;16.40;81.00
63283;DHT22;49407;51.388;0.048;2022-07-03T00:15:25;16.50;80.80
63283;DHT22;49407;51.388;0.048;2022-07-03T00:17:52;16.50;81.00
63283;DHT22;49407;51.388;0.048;2022-07-03T00:20:40;16.60;80.20
63283;DHT22;49407;51.388;0.048;2022-07-03T00:23:10;16.60;79.90
63283;DHT22;49407;51.388;0.048;2022-07-03T00:25:40;16.70;79.40
63283;DHT22;49407;51.388;0.048;2022-07-03T00:28:08;16.70;79.20
63283;DHT22;49407;51.388;0.048;2022-07-03T00:30:35;16.70;79.10
63283;DHT22;49407;51.388;0.048;2022-07-03T00:33:04;16.70;79.40
63283;DHT22;49407;51.388;0.048;2022-07-03T00:35:34;16.70;78.80
63283;DHT22;49407;51.388;0.048;2022-07-03T00:38:02;16.70;78.70
63283;DHT22;49407;51.388;0.048;2022-07-03T00:40:29;16.70;78.60
63283;DHT22;49407;51.388;0.048;2022-07-03T00:42:59;16.70;78.60
63283;DHT22;49407;51.388;0.048;2022-07-03T00:45:27;16.70;78.50
63283;DHT22;49407;51.388;0.048;2022-07-03T00:47:55;16.70;78.40
63283;DHT22;49407;51.388;0.048;2022-07-03T00:50:25;16.70;78.40
63283;DHT22;49407;51.388;0.048;2022-07-03T00:52:54;16.70;78.40
63283;DHT22;49407;51.388;0.048;2022-07-03T00:55:26;16.60;78.40
63283;DHT22;49407;51.388;0.048;2022-07-03T00:57:56;16.60;78.50
63283;DHT22;49407;51.388;0.048;2022-07-03T01:00:24;16.60;78.50
63283;DHT22;49407;51.388;0.048;2022-07-03T01:03:05;16.60;78.40
63283;DHT22;49407;51.388;0.048;2022-07-03T01:05:43;16.60;78.50
63283;DHT22;49407;51.388;0.048;2022-07-03T01:11:10;16.50;78.70
63283;DHT22;49407;51.388;0.048;2022-07-03T01:14:07;16.50;79.00
63283;DHT22;49407;51.388;0.048;2022-07-03T01:17:02;16.50;79.10
63283;DHT22;49407;51.388;0.048;2022-07-03T01:19:44;16.50;79.40
63283;DHT22;49407;51.388;0.048;2022-07-03T01:30:35;16.40;79.80
63283;DHT22;49407;51.388;0.048;2022-07-03T01:33:09;16.40;79.80
63283;DHT22;49407;51.388;0.048;2022-07-03T01:38:35;16.30;80.10
63283;DHT22;49407;51.388;0.048;2022-07-03T01:41:05;16.20;80.10
63283;DHT22;49407;51.388;0.048;2022-07-03T01:43:39;16.00;80.50
63283;DHT22;49407;51.388;0.048;2022-07-03T01:46:09;15.90;81.20
63283;DHT22;49407;51.388;0.048;2022-07-03T01:48:41;15.80;81.50
63283;DHT22;49407;51.388;0.048;2022-07-03T01:51:13;15.60;81.80
63283;DHT22;49407;51.388;0.048;2022-07-03T01:53:44;15.50;82.40
63283;DHT22;49407;51.388;0.048;2022-07-03T01:56:13;15.40;82.70
63283;DHT22;49407;51.388;0.048;2022-07-03T01:58:40;15.40;83.10
63283;DHT22;49407;51.388;0.048;2022-07-03T02:01:21;15.30;83.30
63283;DHT22;49407;51.388;0.048;2022-07-03T02:07:00;15.00;84.10
63283;DHT22;49407;51.388;0.048;2022-07-03T02:09:35;14.90;84.30
63283;DHT22;49407;51.388;0.048;2022-07-03T02:12:11;14.90;85.20
63283;DHT22;49407;51.388;0.048;2022-07-03T02:14:40;14.80;85.00
63283;DHT22;49407;51.388;0.048;2022-07-03T02:17:17;14.70;85.40
63283;DHT22;49407;51.388;0.048;2022-07-03T02:22:57;14.60;86.30
63283;DHT22;49407;51.388;0.048;2022-07-03T02:25:26;14.50;86.40
63283;DHT22;49407;51.388;0.048;2022-07-03T02:30:29;14.40;87.50
63283;DHT22;49407;51.388;0.048;2022-07-03T02:32:59;14.40;87.80
63283;DHT22;49407;51.388;0.048;2022-07-03T02:35:29;14.40;87.50
63283;DHT22;49407;51.388;0.048;2022-07-03T02:41:14;14.20;89.10
63283;DHT22;49407;51.388;0.048;2022-07-03T02:44:04;14.20;88.90
63283;DHT22;49407;51.388;0.048;2022-07-03T02:46:38;14.10;89.50
63283;DHT22;49407;51.388;0.048;2022-07-03T02:53:24;14.00;90.20
63283;DHT22;49407;51.388;0.048;2022-07-03T02:56:04;13.90;90.20
63283;DHT22;49407;51.388;0.048;2022-07-03T03:01:41;13.80;90.90
63283;DHT22;49407;51.388;0.048;2022-07-03T03:04:26;13.80;91.20
63283;DHT22;49407;51.388;0.048;2022-07-03T03:07:08;13.80;91.30
63283;DHT22;49407;51.388;0.048;2022-07-03T03:09:58;13.80;91.50
63283;DHT22;49407;51.388;0.048;2022-07-03T03:12:30;13.70;91.90
63283;DHT22;49407;51.388;0.048;2022-07-03T03:15:03;13.70;91.80
63283;DHT22;49407;51.388;0.048;2022-07-03T03:17:46;13.70;91.90
63283;DHT22;49407;51.388;0.048;2022-07-03T03:20:22;13.60;92.10
63283;DHT22;49407;51.388;0.048;2022-07-03T03:23:06;13.60;92.30
63283;DHT22;49407;51.388;0.048;2022-07-03T03:25:36;13.60;92.30
63283;DHT22;49407;51.388;0.048;2022-07-03T03:28:04;13.50;92.40
63283;DHT22;49407;51.388;0.048;2022-07-03T03:30:31;13.40;92.50
63283;DHT22;49407;51.388;0.048;2022-07-03T03:32:58;13.30;92.60
63283;DHT22;49407;51.388;0.048;2022-07-03T03:35:25;13.30;92.80
63283;DHT22;49407;51.388;0.048;2022-07-03T03:37:52;13.20;92.80
63283;DHT22;49407;51.388;0.048;2022-07-03T03:40:20;13.10;92.90
63283;DHT22;49407;51.388;0.048;2022-07-03T03:42:47;13.00;93.00
63283;DHT22;49407;51.388;0.048;2022-07-03T03:45:14;12.90;93.10
63283;DHT22;49407;51.388;0.048;2022-07-03T03:47:41;12.90;93.40
63283;DHT22;49407;51.388;0.048;2022-07-03T03:50:09;12.90;93.50
63283;DHT22;49407;51.388;0.048;2022-07-03T03:52:36;12.80;93.60
63283;DHT22;49407;51.388;0.048;2022-07-03T03:55:04;12.80;93.70
63283;DHT22;49407;51.388;0.048;2022-07-03T03:57:31;12.70;93.80
63283;DHT22;49407;51.388;0.048;2022-07-03T04:03:03;12.50;94.20
63283;DHT22;49407;51.388;0.048;2022-07-03T04:05:29;12.60;94.10
63283;DHT22;49407;51.388;0.048;2022-07-03T04:07:57;12.60;93.90
63283;DHT22;49407;51.388;0.048;2022-07-03T04:10:25;12.50;94.10
63283;DHT22;49407;51.388;0.048;2022-07-03T04:12:52;12.40;94.20
63283;DHT22;49407;51.388;0.048;2022-07-03T04:15:18;12.40;94.40
63283;DHT22;49407;51.388;0.048;2022-07-03T04:17:45;12.40;94.50
63283;DHT22;49407;51.388;0.048;2022-07-03T04:20:21;12.40;94.70
63283;DHT22;49407;51.388;0.048;2022-07-03T04:22:48;12.40;94.80
63283;DHT22;49407;51.388;0.048;2022-07-03T04:25:17;12.40;94.90
63283;DHT22;49407;51.388;0.048;2022-07-03T04:27:44;12.40;94.90
63283;DHT22;49407;51.388;0.048;2022-07-03T04:30:31;12.40;94.90
63283;DHT22;49407;51.388;0.048;2022-07-03T04:32:58;12.50;94.80
63283;DHT22;49407;51.388;0.048;2022-07-03T04:35:25;12.50;95.10
63283;DHT22;49407;51.388;0.048;2022-07-03T04:37:52;12.50;95.10
63283;DHT22;49407;51.388;0.048;2022-07-03T04:40:19;12.60;94.90
63283;DHT22;49407;51.388;0.048;2022-07-03T04:42:46;12.60;95.00
63283;DHT22;49407;51.388;0.048;2022-07-03T04:45:13;12.70;95.10
63283;DHT22;49407;51.388;0.048;2022-07-03T04:47:40;12.80;95.20
63283;DHT22;49407;51.388;0.048;2022-07-03T04:53:11;12.90;95.40
63283;DHT22;49407;51.388;0.048;2022-07-03T04:55:38;13.00;95.30
63283;DHT22;49407;51.388;0.048;2022-07-03T04:58:31;13.20;95.40
63283;DHT22;49407;51.388;0.048;2022-07-03T05:00:58;13.30;95.60
63283;DHT22;49407;51.388;0.048;2022-07-03T05:03:25;13.50;95.60
63283;DHT22;49407;51.388;0.048;2022-07-03T05:05:53;13.60;95.70
63283;DHT22;49407;51.388;0.048;2022-07-03T05:08:21;13.80;95.60
63283;DHT22;49407;51.388;0.048;2022-07-03T05:10:48;13.90;95.50
63283;DHT22;49407;51.388;0.048;2022-07-03T05:13:15;14.00;95.40
63283;DHT22;49407;51.388;0.048;2022-07-03T05:15:42;14.20;95.40
63283;DHT22;49407;51.388;0.048;2022-07-03T05:18:10;14.30;95.30
63283;DHT22;49407;51.388;0.048;2022-07-03T05:20:37;14.40;95.20
63283;DHT22;49407;51.388;0.048;2022-07-03T05:23:04;14.60;95.10
63283;DHT22;49407;51.388;0.048;2022-07-03T05:25:31;14.70;94.90
63283;DHT22;49407;51.388;0.048;2022-07-03T05:28:00;14.80;94.80
63283;DHT22;49407;51.388;0.048;2022-07-03T05:30:27;14.90;94.70
63283;DHT22;49407;51.388;0.048;2022-07-03T05:32:54;15.10;94.50
63283;DHT22;49407;51.388;0.048;2022-07-03T05:35:21;15.30;94.40
63283;DHT22;49407;51.388;0.048;2022-07-03T05:37:48;15.40;94.20
63283;DHT22;49407;51.388;0.048;2022-07-03T05:40:16;15.50;94.00
63283;DHT22;49407;51.388;0.048;2022-07-03T05:42:44;15.60;93.80
63283;DHT22;49407;51.388;0.048;2022-07-03T05:45:11;15.80;93.70
63283;DHT22;49407;51.388;0.048;2022-07-03T05:47:38;15.90;93.50
63283;DHT22;49407;51.388;0.048;2022-07-03T05:50:05;16.00;93.30
63283;DHT22;49407;51.388;0.048;2022-07-03T05:52:32;16.10;93.00
63283;DHT22;49407;51.388;0.048;2022-07-03T05:54:59;16.20;92.90
63283;DHT22;49407;51.388;0.048;2022-07-03T05:57:26;16.30;92.80
63283;DHT22;49407;51.388;0.048;2022-07-03T06:00:04;16.50;92.50
63283;DHT22;49407;51.388;0.048;2022-07-03T06:02:31;16.60;92.30
63283;DHT22;49407;51.388;0.048;2022-07-03T06:04:58;16.70;92.00
63283;DHT22;49407;51.388;0.048;2022-07-03T06:07:25;16.70;91.90
63283;DHT22;49407;51.388;0.048;2022-07-03T06:09:53;16.80;91.70
63283;DHT22;49407;51.388;0.048;2022-07-03T06:12:20;17.00;91.50
63283;DHT22;49407;51.388;0.048;2022-07-03T06:14:47;17.10;91.20
63283;DHT22;49407;51.388;0.048;2022-07-03T06:17:14;17.20;91.00
63283;DHT22;49407;51.388;0.048;2022-07-03T06:19:43;17.30;90.70
63283;DHT22;49407;51.388;0.048;2022-07-03T06:22:11;17.40;90.30
63283;DHT22;49407;51.388;0.048;2022-07-03T06:24:38;17.50;90.10
63283;DHT22;49407;51.388;0.048;2022-07-03T06:27:05;17.50;89.70
63283;DHT22;49407;51.388;0.048;2022-07-03T06:29:33;17.50;89.50
63283;DHT22;49407;51.388;0.048;2022-07-03T06:32:00;17.60;89.10
63283;DHT22;49407;51.388;0.048;2022-07-03T06:34:27;17.70;88.10
63283;DHT22;49407;51.388;0.048;2022-07-03T06:36:54;17.90;87.90
63283;DHT22;49407;51.388;0.048;2022-07-03T06:39:40;18.10;87.40
63283;DHT22;49407;51.388;0.048;2022-07-03T06:42:08;18.40;86.30
63283;DHT22;49407;51.388;0.048;2022-07-03T06:44:34;18.60;85.30
63283;DHT22;49407;51.388;0.048;2022-07-03T06:47:01;18.90;84.20
63283;DHT22;49407;51.388;0.048;2022-07-03T06:49:32;19.10;83.20
63283;DHT22;49407;51.388;0.048;2022-07-03T06:52:00;19.10;82.30
63283;DHT22;49407;51.388;0.048;2022-07-03T06:54:27;19.30;81.60
63283;DHT22;49407;51.388;0.048;2022-07-03T06:56:54;19.50;80.50
63283;DHT22;49407;51.388;0.048;2022-07-03T06:59:21;19.60;79.60
63283;DHT22;49407;51.388;0.048;2022-07-03T07:01:48;19.60;79.20
63283;DHT22;49407;51.388;0.048;2022-07-03T07:04:15;19.70;78.80
63283;DHT22;49407;51.388;0.048;2022-07-03T07:06:42;19.80;78.30
63283;DHT22;49407;51.388;0.048;2022-07-03T07:12:15;20.00;75.80
63283;DHT22;49407;51.388;0.048;2022-07-03T07:14:42;20.10;75.50
63283;DHT22;49407;51.388;0.048;2022-07-03T07:17:09;20.00;74.60
63283;DHT22;49407;51.388;0.048;2022-07-03T07:19:40;19.90;74.60
63283;DHT22;49407;51.388;0.048;2022-07-03T07:22:08;19.90;74.80
63283;DHT22;49407;51.388;0.048;2022-07-03T07:24:35;19.80;74.70
63283;DHT22;49407;51.388;0.048;2022-07-03T07:27:02;19.70;74.80
63283;DHT22;49407;51.388;0.048;2022-07-03T07:29:31;19.60;74.80
63283;DHT22;49407;51.388;0.048;2022-07-03T07:31:58;19.50;74.80
63283;DHT22;49407;51.388;0.048;2022-07-03T07:34:25;19.50;74.90
63283;DHT22;49407;51.388;0.048;2022-07-03T07:36:52;19.80;74.20
63283;DHT22;49407;51.388;0.048;2022-07-03T07:39:20;20.00;73.60
63283;DHT22;49407;51.388;0.048;2022-07-03T07:41:47;20.10;72.90
63283;DHT22;49407;51.388;0.048;2022-07-03T07:44:15;20.40;72.40
63283;DHT22;49407;51.388;0.048;2022-07-03T07:46:46;20.80;71.80
63283;DHT22;49407;51.388;0.048;2022-07-03T07:52:47;21.40;69.40
63283;DHT22;49407;51.388;0.048;2022-07-03T07:55:14;21.60;68.40
63283;DHT22;49407;51.388;0.048;2022-07-03T07:57:41;21.70;68.10
63283;DHT22;49407;51.388;0.048;2022-07-03T08:00:11;21.80;67.20
63283;DHT22;49407;51.388;0.048;2022-07-03T08:02:39;22.00;66.60
63283;DHT22;49407;51.388;0.048;2022-07-03T08:05:24;21.90;66.10
63283;DHT22;49407;51.388;0.048;2022-07-03T08:08:09;21.90;66.10
63283;DHT22;49407;51.388;0.048;2022-07-03T08:10:50;21.90;65.20
63283;DHT22;49407;51.388;0.048;2022-07-03T08:13:18;21.80;65.00
63283;DHT22;49407;51.388;0.048;2022-07-03T08:15:46;21.80;65.00
63283;DHT22;49407;51.388;0.048;2022-07-03T08:18:34;21.80;64.60
63283;DHT22;49407;51.388;0.048;2022-07-03T08:21:05;21.80;64.20
63283;DHT22;49407;51.388;0.048;2022-07-03T08:23:32;21.70;63.70
63283;DHT22;49407;51.388;0.048;2022-07-03T08:25:59;21.60;63.90
63283;DHT22;49407;51.388;0.048;2022-07-03T08:31:46;21.70;63.60
63283;DHT22;49407;51.388;0.048;2022-07-03T08:34:13;21.80;63.10
63283;DHT22;49407;51.388;0.048;2022-07-03T08:36:41;21.70;62.80
63283;DHT22;49407;51.388;0.048;2022-07-03T08:39:10;21.70;62.60
63283;DHT22;49407;51.388;0.048;2022-07-03T08:41:40;22.00;62.30
63283;DHT22;49407;51.388;0.048;2022-07-03T08:44:09;22.30;61.90
63283;DHT22;49407;51.388;0.048;2022-07-03T08:46:39;22.50;61.30
63283;DHT22;49407;51.388;0.048;2022-07-03T08:49:27;22.80;61.00
63283;DHT22;49407;51.388;0.048;2022-07-03T08:51:55;23.10;59.40
63283;DHT22;49407;51.388;0.048;2022-07-03T08:54:22;23.40;59.20
63283;DHT22;49407;51.388;0.048;2022-07-03T08:56:49;23.50;58.50
63283;DHT22;49407;51.388;0.048;2022-07-03T08:59:37;23.60;58.50
63283;DHT22;49407;51.388;0.048;2022-07-03T09:02:05;23.50;58.00
63283;DHT22;49407;51.388;0.048;2022-07-03T09:04:35;23.30;58.20
63283;DHT22;49407;51.388;0.048;2022-07-03T09:07:02;23.00;58.20
63283;DHT22;49407;51.388;0.048;2022-07-03T09:13:54;22.80;58.80
63283;DHT22;49407;51.388;0.048;2022-07-03T09:16:21;23.00;58.00
63283;DHT22;49407;51.388;0.048;2022-07-03T09:23:18;23.10;57.60
63283;DHT22;49407;51.388;0.048;2022-07-03T09:25:57;23.50;57.00
63283;DHT22;49407;51.388;0.048;2022-07-03T09:32:15;24.20;55.70
63283;DHT22;49407;51.388;0.048;2022-07-03T09:34:42;24.50;55.20
63283;DHT22;49407;51.388;0.048;2022-07-03T09:37:26;24.80;54.50
63283;DHT22;49407;51.388;0.048;2022-07-03T09:40:26;24.80;53.60
63283;DHT22;49407;51.388;0.048;2022-07-03T09:43:07;24.70;53.70
63283;DHT22;49407;51.388;0.048;2022-07-03T09:46:00;24.80;53.70
63283;DHT22;49407;51.388;0.048;2022-07-03T09:48:49;24.90;53.30
63283;DHT22;49407;51.388;0.048;2022-07-03T09:51:24;24.80;52.40
63283;DHT22;49407;51.388;0.048;2022-07-03T09:53:55;24.60;52.80
63283;DHT22;49407;51.388;0.048;2022-07-03T10:11:19;25.50;51.70
63283;DHT22;49407;51.388;0.048;2022-07-03T10:13:47;26.00;50.80
63283;DHT22;49407;51.388;0.048;2022-07-03T10:16:14;26.40;50.50
63283;DHT22;49407;51.388;0.048;2022-07-03T10:22:30;26.80;48.60
63283;DHT22;49407;51.388;0.048;2022-07-03T10:25:00;27.40;48.10
63283;DHT22;49407;51.388;0.048;2022-07-03T10:27:29;28.00;47.00
63283;DHT22;49407;51.388;0.048;2022-07-03T10:30:02;28.60;46.10
63283;DHT22;49407;51.388;0.048;2022-07-03T10:32:29;28.20;45.70
63283;DHT22;49407;51.388;0.048;2022-07-03T10:35:00;28.00;46.20
63283;DHT22;49407;51.388;0.048;2022-07-03T10:37:33;27.90;45.60
63283;DHT22;49407;51.388;0.048;2022-07-03T10:40:15;27.40;45.80
63283;DHT22;49407;51.388;0.048;2022-07-03T10:43:08;26.70;46.50
63283;DHT22;49407;51.388;0.048;2022-07-03T10:46:14;26.10;47.20
63283;DHT22;49407;51.388;0.048;2022-07-03T10:48:57;25.60;48.20
63283;DHT22;49407;51.388;0.048;2022-07-03T10:51:26;25.70;48.40
63283;DHT22;49407;51.388;0.048;2022-07-03T10:54:22;26.00;47.60
63283;DHT22;49407;51.388;0.048;2022-07-03T11:01:38;25.30;48.40
63283;DHT22;49407;51.388;0.048;2022-07-03T11:04:05;24.50;49.70
63283;DHT22;49407;51.388;0.048;2022-07-03T11:09:41;23.80;51.40
63283;DHT22;49407;51.388;0.048;2022-07-03T11:12:08;23.60;52.10
63283;DHT22;49407;51.388;0.048;2022-07-03T11:14:35;23.70;52.10
63283;DHT22;49407;51.388;0.048;2022-07-03T11:17:19;23.80;52.00
63283;DHT22;49407;51.388;0.048;2022-07-03T11:19:48;24.10;51.90
63283;DHT22;49407;51.388;0.048;2022-07-03T11:22:57;25.00;51.60
63283;DHT22;49407;51.388;0.048;2022-07-03T11:28:06;28.40;46.60
63283;DHT22;49407;51.388;0.048;2022-07-03T11:33:49;29.10;44.00
63283;DHT22;49407;51.388;0.048;2022-07-03T11:41:23;26.90;45.60
63283;DHT22;49407;51.388;0.048;2022-07-03T11:43:55;26.40;46.30
63283;DHT22;49407;51.388;0.048;2022-07-03T11:46:24;26.70;46.50
63283;DHT22;49407;51.388;0.048;2022-07-03T11:52:02;29.00;44.00
63283;DHT22;49407;51.388;0.048;2022-07-03T11:54:54;30.40;41.80
63283;DHT22;49407;51.388;0.048;2022-07-03T11:57:22;31.30;40.70
63283;DHT22;49407;51.388;0.048;2022-07-03T11:59:51;32.30;39.80
63283;DHT22;49407;51.388;0.048;2022-07-03T12:02:21;33.10;38.70
63283;DHT22;49407;51.388;0.048;2022-07-03T12:04:48;33.90;38.20
63283;DHT22;49407;51.388;0.048;2022-07-03T12:07:15;34.40;37.10
63283;DHT22;49407;51.388;0.048;2022-07-03T12:10:01;34.90;36.30
63283;DHT22;49407;51.388;0.048;2022-07-03T12:12:37;35.40;36.10
63283;DHT22;49407;51.388;0.048;2022-07-03T12:15:04;36.00;35.20
63283;DHT22;49407;51.388;0.048;2022-07-03T12:17:31;36.60;34.80
63283;DHT22;49407;51.388;0.048;2022-07-03T12:23:02;37.10;32.70
63283;DHT22;49407;51.388;0.048;2022-07-03T12:25:29;35.80;32.80
63283;DHT22;49407;51.388;0.048;2022-07-03T12:27:57;34.30;33.50
63283;DHT22;49407;51.388;0.048;2022-07-03T12:30:25;32.80;34.50
63283;DHT22;49407;51.388;0.048;2022-07-03T12:32:54;31.80;35.70
63283;DHT22;49407;51.388;0.048;2022-07-03T12:35:24;31.00;36.10
63283;DHT22;49407;51.388;0.048;2022-07-03T12:37:51;30.10;36.60
63283;DHT22;49407;51.388;0.048;2022-07-03T12:40:18;29.30;37.40
63283;DHT22;49407;51.388;0.048;2022-07-03T12:42:51;28.60;38.20
63283;DHT22;49407;51.388;0.048;2022-07-03T12:45:19;28.10;39.10
63283;DHT22;49407;51.388;0.048;2022-07-03T12:48:03;28.70;39.50
63283;DHT22;49407;51.388;0.048;2022-07-03T12:50:48;30.80;38.00
63283;DHT22;49407;51.388;0.048;2022-07-03T12:53:29;32.60;35.60
63283;DHT22;49407;51.388;0.048;2022-07-03T12:56:03;33.80;34.50
63283;DHT22;49407;51.388;0.048;2022-07-03T12:58:30;34.40;33.30
63283;DHT22;49407;51.388;0.048;2022-07-03T13:01:32;33.60;33.50
63283;DHT22;49407;51.388;0.048;2022-07-03T13:04:05;32.90;33.70
63283;DHT22;49407;51.388;0.048;2022-07-03T13:06:35;33.50;34.10
63283;DHT22;49407;51.388;0.048;2022-07-03T13:09:04;34.40;33.10
63283;DHT22;49407;51.388;0.048;2022-07-03T13:11:36;34.60;32.60
63283;DHT22;49407;51.388;0.048;2022-07-03T13:16:49;33.50;33.20
63283;DHT22;49407;51.388;0.048;2022-07-03T13:19:19;32.40;33.80
63283;DHT22;49407;51.388;0.048;2022-07-03T13:21:47;31.20;34.70
63283;DHT22;49407;51.388;0.048;2022-07-03T13:24:16;30.10;35.50
63283;DHT22;49407;51.388;0.048;2022-07-03T13:26:43;29.20;36.60
63283;DHT22;49407;51.388;0.048;2022-07-03T13:29:18;28.50;37.50
63283;DHT22;49407;51.388;0.048;2022-07-03T13:31:45;28.00;38.40
63283;DHT22;49407;51.388;0.048;2022-07-03T13:34:13;27.60;39.10
63283;DHT22;49407;51.388;0.048;2022-07-03T13:36:40;27.30;39.60
63283;DHT22;49407;51.388;0.048;2022-07-03T13:39:07;27.20;40.10
63283;DHT22;49407;51.388;0.048;2022-07-03T13:41:36;27.20;40.50
63283;DHT22;49407;51.388;0.048;2022-07-03T13:44:03;28.60;39.80
63283;DHT22;49407;51.388;0.048;2022-07-03T13:46:30;31.00;38.20
63283;DHT22;49407;51.388;0.048;2022-07-03T13:48:58;33.40;36.00
63283;DHT22;49407;51.388;0.048;2022-07-03T13:51:25;35.40;34.00
63283;DHT22;49407;51.388;0.048;2022-07-03T13:53:53;36.60;32.30
63283;DHT22;49407;51.388;0.048;2022-07-03T13:56:20;37.40;31.70
63283;DHT22;49407;51.388;0.048;2022-07-03T13:58:48;37.50;30.80
63283;DHT22;49407;51.388;0.048;2022-07-03T14:01:18;37.10;31.00
63283;DHT22;49407;51.388;0.048;2022-07-03T14:03:47;37.30;31.20
63283;DHT22;49407;51.388;0.048;2022-07-03T14:06:14;38.10;30.60
63283;DHT22;49407;51.388;0.048;2022-07-03T14:08:42;38.10;29.70
63283;DHT22;49407;51.388;0.048;2022-07-03T14:11:09;36.80;29.80
63283;DHT22;49407;51.388;0.048;2022-07-03T14:13:36;35.30;30.20
63283;DHT22;49407;51.388;0.048;2022-07-03T14:16:04;33.80;31.40
63283;DHT22;49407;51.388;0.048;2022-07-03T14:18:36;32.40;32.30
63283;DHT22;49407;51.388;0.048;2022-07-03T14:21:03;31.20;33.30
63283;DHT22;49407;51.388;0.048;2022-07-03T14:23:32;30.20;34.30
63283;DHT22;49407;51.388;0.048;2022-07-03T14:25:59;29.30;35.30
63283;DHT22;49407;51.388;0.048;2022-07-03T14:28:26;28.50;36.00
63283;DHT22;49407;51.388;0.048;2022-07-03T14:31:16;27.90;36.50
63283;DHT22;49407;51.388;0.048;2022-07-03T14:34:02;27.50;37.30
63283;DHT22;49407;51.388;0.048;2022-07-03T14:36:29;27.10;37.80
63283;DHT22;49407;51.388;0.048;2022-07-03T14:39:12;26.90;38.40
63283;DHT22;49407;51.388;0.048;2022-07-03T14:41:41;26.70;38.70
63283;DHT22;49407;51.388;0.048;2022-07-03T14:44:08;26.60;39.20
63283;DHT22;49407;51.388;0.048;2022-07-03T14:46:35;26.40;39.40
63283;DHT22;49407;51.388;0.048;2022-07-03T14:49:03;26.20;39.80
63283;DHT22;49407;51.388;0.048;2022-07-03T14:51:39;26.10;40.20
63283;DHT22;49407;51.388;0.048;2022-07-03T14:54:06;25.90;40.50
63283;DHT22;49407;51.388;0.048;2022-07-03T14:56:40;25.80;40.70
63283;DHT22;49407;51.388;0.048;2022-07-03T14:59:09;25.70;41.20
63283;DHT22;49407;51.388;0.048;2022-07-03T15:01:36;25.60;41.50
63283;DHT22;49407;51.388;0.048;2022-07-03T15:04:17;25.50;42.00
63283;DHT22;49407;51.388;0.048;2022-07-03T15:06:48;25.40;42.50
63283;DHT22;49407;51.388;0.048;2022-07-03T15:12:07;25.30;43.30
63283;DHT22;49407;51.388;0.048;2022-07-03T15:14:53;25.20;43.50
63283;DHT22;49407;51.388;0.048;2022-07-03T15:17:21;25.10;43.80
63283;DHT22;49407;51.388;0.048;2022-07-03T15:19:50;25.00;44.10
63283;DHT22;49407;51.388;0.048;2022-07-03T15:22:20;25.00;44.40
63283;DHT22;49407;51.388;0.048;2022-07-03T15:24:52;24.90;44.60
63283;DHT22;49407;51.388;0.048;2022-07-03T15:27:24;24.80;44.80
63283;DHT22;49407;51.388;0.048;2022-07-03T15:29:51;24.70;45.10
63283;DHT22;49407;51.388;0.048;2022-07-03T15:32:18;24.70;45.30
63283;DHT22;49407;51.388;0.048;2022-07-03T15:34:45;24.60;45.50
63283;DHT22;49407;51.388;0.048;2022-07-03T15:40:06;24.50;45.90
63283;DHT22;49407;51.388;0.048;2022-07-03T15:45:06;24.60;46.20
63283;DHT22;49407;51.388;0.048;2022-07-03T15:48:05;24.60;46.30
63283;DHT22;49407;51.388;0.048;2022-07-03T15:53:22;25.00;46.30
63283;DHT22;49407;51.388;0.048;2022-07-03T15:55:54;25.10;46.20
63283;DHT22;49407;51.388;0.048;2022-07-03T15:58:44;25.30;46.30
63283;DHT22;49407;51.388;0.048;2022-07-03T16:01:14;25.20;46.40
63283;DHT22;49407;51.388;0.048;2022-07-03T16:04:10;25.20;46.30
63283;DHT22;49407;51.388;0.048;2022-07-03T16:06:42;25.00;46.40
63283;DHT22;49407;51.388;0.048;2022-07-03T16:09:13;24.90;46.70
63283;DHT22;49407;51.388;0.048;2022-07-03T16:11:40;24.70;47.10
63283;DHT22;49407;51.388;0.048;2022-07-03T16:14:09;24.50;47.30
63283;DHT22;49407;51.388;0.048;2022-07-03T16:16:37;24.40;47.60
63283;DHT22;49407;51.388;0.048;2022-07-03T16:22:26;24.10;48.00
63283;DHT22;49407;51.388;0.048;2022-07-03T16:24:55;24.20;47.70
63283;DHT22;49407;51.388;0.048;2022-07-03T16:27:24;24.40;47.50
63283;DHT22;49407;51.388;0.048;2022-07-03T16:29:52;24.60;47.00
63283;DHT22;49407;51.388;0.048;2022-07-03T16:32:21;24.80;46.70
63283;DHT22;49407;51.388;0.048;2022-07-03T16:35:40;25.00;46.70
63283;DHT22;49407;51.388;0.048;2022-07-03T16:38:09;25.00;47.60
63283;DHT22;49407;51.388;0.048;2022-07-03T16:40:36;25.10;47.90
63283;DHT22;49407;51.388;0.048;2022-07-03T16:43:05;25.10;48.20
63283;DHT22;49407;51.388;0.048;2022-07-03T16:45:34;25.40;48.60
63283;DHT22;49407;51.388;0.048;2022-07-03T16:48:21;25.60;48.30
63283;DHT22;49407;51.388;0.048;2022-07-03T16:50:52;25.80;48.00
63283;DHT22;49407;51.388;0.048;2022-07-03T16:53:20;25.80;47.30
63283;DHT22;49407;51.388;0.048;2022-07-03T16:55:47;25.60;47.30
63283;DHT22;49407;51.388;0.048;2022-07-03T16:58:15;25.30;47.50
63283;DHT22;49407;51.388;0.048;2022-07-03T17:00:44;25.00;47.80
63283;DHT22;49407;51.388;0.048;2022-07-03T17:03:12;24.70;48.30
63283;DHT22;49407;51.388;0.048;2022-07-03T17:05:43;24.50;48.70
63283;DHT22;49407;51.388;0.048;2022-07-03T17:08:16;24.50;49.00
63283;DHT22;49407;51.388;0.048;2022-07-03T17:10:48;24.40;49.10
63283;DHT22;49407;51.388;0.048;2022-07-03T17:13:16;24.30;49.30
63283;DHT22;49407;51.388;0.048;2022-07-03T17:15:45;24.30;49.60
63283;DHT22;49407;51.388;0.048;2022-07-03T17:18:13;24.30;49.70
63283;DHT22;49407;51.388;0.048;2022-07-03T17:20:43;24.30;49.80
63283;DHT22;49407;51.388;0.048;2022-07-03T17:23:19;24.40;49.80
63283;DHT22;49407;51.388;0.048;2022-07-03T17:26:02;24.40;49.70
63283;DHT22;49407;51.388;0.048;2022-07-03T17:29:00;24.40;49.20
63283;DHT22;49407;51.388;0.048;2022-07-03T17:31:27;24.40;49.00
63283;DHT22;49407;51.388;0.048;2022-07-03T17:34:01;24.30;48.90
63283;DHT22;49407;51.388;0.048;2022-07-03T17:36:31;24.20;49.00
63283;DHT22;49407;51.388;0.048;2022-07-03T17:42:09;23.90;49.40
63283;DHT22;49407;51.388;0.048;2022-07-03T17:44:41;23.80;49.70
63283;DHT22;49407;51.388;0.048;2022-07-03T17:47:14;23.80;49.90
63283;DHT22;49407;51.388;0.048;2022-07-03T17:50:04;23.70;50.10
63283;DHT22;49407;51.388;0.048;2022-07-03T17:52:34;23.60;50.20
63283;DHT22;49407;51.388;0.048;2022-07-03T17:55:05;23.60;50.20
63283;DHT22;49407;51.388;0.048;2022-07-03T17:57:34;23.50;50.40
63283;DHT22;49407;51.388;0.048;2022-07-03T18:00:07;23.50;50.60
63283;DHT22;49407;51.388;0.048;2022-07-03T18:02:40;23.40;50.70
63283;DHT22;49407;51.388;0.048;2022-07-03T18:05:08;23.40;50.90